Time;durP1;ratioP1;P1;durP2;ratioP2;P2;SDS_P1;SDS_P2;PMS_P1;PMS_P2;Temp;Humidity;BMP_temperature;BMP_pressure;BME280_temperature;BME280_humidity;BME280_pressure;Samples;Min_cycle;Max_cycle;Signal;HPM_P1;HPM_P2
2022/09/19 00:00:41;;;;;;;1.33;0.70;;;8.20;99.90;;;;;;5031224;28;20296;-80
2022/09/19 00:03:07;;;;;;;1.00;0.70;;;8.20;99.90;;;;;;5009042;28;20225;-79
2022/09/19 00:05:38;;;;;;;1.07;0.60;;;8.10;99.90;;;;;;5037912;28;20220;-79
2022/09/19 00:08:06;;;;;;;0.93;0.60;;;8.10;99.90;;;;;;5039109;28;20221;-80
2022/09/19 00:10:38;;;;;;;1.07;0.70;;;8.00;99.90;;;;;;5032293;28;20254;-79
2022/09/19 00:13:06;;;;;;;1.40;0.70;;;8.00;99.90;;;;;;5015891;28;20232;-79
2022/09/19 00:15:33;;;;;;;1.13;0.57;;;7.90;99.90;;;;;;5018459;28;20482;-80
2022/09/19 00:18:00;;;;;;;1.90;0.53;;;7.90;99.90;;;;;;5038839;28;20217;-80
2022/09/19 00:20:26;;;;;;;0.80;0.50;;;7.80;99.90;;;;;;5040456;28;20316;-80
2022/09/19 00:25:35;;;;;;;1.03;0.53;;;7.80;99.90;;;;;;5020895;28;20221;-80
2022/09/19 00:28:07;;;;;;;0.80;0.60;;;7.80;99.90;;;;;;5022097;28;20886;-80
2022/09/19 00:30:38;;;;;;;1.50;0.50;;;7.70;99.90;;;;;;5025879;28;20249;-80
2022/09/19 00:33:07;;;;;;;0.60;0.50;;;7.70;99.90;;;;;;5038399;28;20223;-80
2022/09/19 00:35:34;;;;;;;0.83;0.50;;;7.70;99.90;;;;;;5041605;28;20315;-81
2022/09/19 00:38:02;;;;;;;0.50;0.47;;;7.60;99.90;;;;;;5023261;28;20230;-79
2022/09/19 00:40:28;;;;;;;0.63;0.57;;;7.60;99.90;;;;;;5020186;28;20771;-79
2022/09/19 00:42:56;;;;;;;1.10;0.50;;;7.60;99.90;;;;;;5016919;28;20237;-79
2022/09/19 00:45:23;;;;;;;1.80;0.50;;;7.60;99.90;;;;;;5036000;28;20226;-81
2022/09/19 00:47:53;;;;;;;1.30;0.50;;;7.60;99.90;;;;;;5038406;28;20553;-80
2022/09/19 00:50:27;;;;;;;2.50;0.60;;;7.50;99.90;;;;;;5038999;28;20212;-79
2022/09/19 00:52:59;;;;;;;0.97;0.50;;;7.50;99.90;;;;;;5014614;28;20505;-79
2022/09/19 00:55:26;;;;;;;0.70;0.47;;;7.50;99.90;;;;;;5035973;28;20482;-79
2022/09/19 00:58:03;;;;;;;0.60;0.50;;;7.50;99.90;;;;;;5034285;28;20231;-79
2022/09/19 01:00:33;;;;;;;0.87;0.60;;;7.50;99.90;;;;;;5004429;28;20312;-80
2022/09/19 01:03:01;;;;;;;1.67;0.50;;;7.40;99.90;;;;;;5015087;28;20461;-79
2022/09/19 01:05:38;;;;;;;1.27;0.50;;;7.40;99.90;;;;;;5020037;28;20228;-79
2022/09/19 01:08:23;;;;;;;1.33;0.53;;;7.40;99.90;;;;;;5032015;28;20348;-79
2022/09/19 01:11:11;;;;;;;0.90;0.70;;;7.40;99.90;;;;;;5020220;28;20266;-79
2022/09/19 01:13:47;;;;;;;1.77;0.40;;;7.40;99.90;;;;;;5033647;28;20653;-79
2022/09/19 01:16:20;;;;;;;1.00;0.70;;;7.40;99.90;;;;;;5016690;28;20209;-78
2022/09/19 01:18:53;;;;;;;3.10;0.70;;;7.30;99.90;;;;;;5018907;28;20351;-79
2022/09/19 01:21:40;;;;;;;0.80;0.60;;;7.30;99.90;;;;;;5023951;28;20234;-79
2022/09/19 01:24:47;;;;;;;1.83;1.00;;;7.30;99.90;;;;;;5017880;28;20235;-79
2022/09/19 01:27:41;;;;;;;2.67;0.70;;;7.30;99.90;;;;;;5019387;28;20224;-79
2022/09/19 01:30:12;;;;;;;1.37;0.80;;;7.20;99.90;;;;;;5006782;28;20620;-81
2022/09/19 01:32:49;;;;;;;1.37;0.70;;;7.20;99.90;;;;;;5005789;28;20287;-79
2022/09/19 01:35:18;;;;;;;4.73;1.00;;;7.20;99.90;;;;;;5022237;28;20254;-78
2022/09/19 01:37:51;;;;;;;0.50;0.50;;;7.20;99.90;;;;;;5011520;28;20264;-79
2022/09/19 01:40:21;;;;;;;0.83;0.70;;;7.20;99.90;;;;;;5011649;28;20254;-80
2022/09/19 01:42:56;;;;;;;1.10;0.80;;;7.10;99.90;;;;;;5002276;28;20224;-80
2022/09/19 01:45:30;;;;;;;2.13;0.70;;;7.10;99.90;;;;;;5004042;28;20775;-80
2022/09/19 01:48:06;;;;;;;1.37;0.80;;;7.10;99.90;;;;;;5030151;28;20953;-80
2022/09/19 01:50:46;;;;;;;3.23;0.90;;;7.10;99.90;;;;;;5032567;28;20247;-80
2022/09/19 01:53:26;;;;;;;1.03;0.70;;;7.10;99.90;;;;;;5021828;28;20373;-79
2022/09/19 01:56:28;;;;;;;0.77;0.60;;;7.10;99.90;;;;;;5038993;28;20238;-80
2022/09/19 01:59:04;;;;;;;1.67;1.20;;;7.10;99.90;;;;;;5031958;28;20280;-81
2022/09/19 02:01:41;;;;;;;1.33;0.93;;;7.10;99.90;;;;;;5029238;28;20452;-81
2022/09/19 02:04:16;;;;;;;2.30;1.00;;;7.10;99.90;;;;;;5021537;28;20831;-81
2022/09/19 02:06:48;;;;;;;1.00;0.90;;;7.10;99.90;;;;;;5009055;28;20319;-80
2022/09/19 02:09:23;;;;;;;1.63;0.87;;;7.10;99.90;;;;;;5008602;28;20231;-80
2022/09/19 02:11:51;;;;;;;1.97;1.00;;;7.00;99.90;;;;;;5002680;28;20307;-80
2022/09/19 02:14:21;;;;;;;1.53;0.80;;;7.00;99.90;;;;;;5001988;28;20224;-81
2022/09/19 02:17:03;;;;;;;1.30;0.80;;;7.00;99.90;;;;;;5023225;28;20299;-81
2022/09/19 02:19:33;;;;;;;2.40;0.97;;;7.00;99.90;;;;;;5023686;28;20861;-82
2022/09/19 02:22:03;;;;;;;1.10;0.83;;;7.10;99.90;;;;;;5023979;28;20280;-80
2022/09/19 02:24:36;;;;;;;1.93;0.80;;;7.00;99.90;;;;;;5016853;28;20228;-81
2022/09/19 02:27:09;;;;;;;2.43;0.80;;;7.00;99.90;;;;;;5020586;28;20254;-80
2022/09/19 02:29:45;;;;;;;2.17;0.90;;;7.00;99.90;;;;;;5023486;28;20297;-80
2022/09/19 02:32:16;;;;;;;1.40;0.67;;;7.00;99.90;;;;;;5039912;28;20760;-81
2022/09/19 02:34:44;;;;;;;1.47;0.67;;;7.00;99.90;;;;;;5036141;28;20895;-81
2022/09/19 02:37:21;;;;;;;1.83;0.80;;;7.00;99.90;;;;;;5025754;28;21071;-81
2022/09/19 02:39:57;;;;;;;2.23;1.00;;;7.00;99.90;;;;;;5029107;28;20302;-82
2022/09/19 02:42:44;;;;;;;0.97;0.87;;;7.00;99.90;;;;;;5025228;28;20239;-82
2022/09/19 02:45:17;;;;;;;2.57;0.80;;;7.00;99.90;;;;;;5022950;28;21513;-82
2022/09/19 02:47:59;;;;;;;4.07;0.97;;;6.90;99.90;;;;;;5026162;28;20596;-82
2022/09/19 02:50:33;;;;;;;2.10;0.90;;;6.90;99.90;;;;;;5019014;28;20251;-81
2022/09/19 02:53:06;;;;;;;2.87;0.97;;;6.90;99.90;;;;;;5021464;28;20291;-80
2022/09/19 02:55:39;;;;;;;2.00;1.10;;;6.90;99.90;;;;;;5039458;28;20233;-81
2022/09/19 02:58:07;;;;;;;1.87;0.90;;;6.90;99.90;;;;;;5040500;28;20227;-81
2022/09/19 03:00:38;;;;;;;2.13;1.00;;;6.90;99.90;;;;;;5025084;28;20226;-80
2022/09/19 03:04:11;;;;;;;4.00;0.93;;;6.90;99.90;;;;;;5022239;28;20223;-81
2022/09/19 03:06:01;;;;;;;2.10;0.83;;;6.80;99.90;;;;;;5021012;28;20229;-81
2022/09/19 03:08:36;;;;;;;2.50;0.80;;;6.80;99.90;;;;;;5024623;28;20279;-81
2022/09/19 03:11:08;;;;;;;1.20;0.90;;;6.80;99.90;;;;;;5027427;28;20268;-81
2022/09/19 03:13:38;;;;;;;3.27;0.83;;;6.80;99.90;;;;;;5040835;28;20238;-79
2022/09/19 03:16:08;;;;;;;3.20;0.90;;;6.80;99.90;;;;;;5035771;28;20219;-80
2022/09/19 03:18:39;;;;;;;2.33;1.23;;;6.70;99.90;;;;;;5027657;28;20342;-80
2022/09/19 03:21:09;;;;;;;1.80;0.77;;;6.70;99.90;;;;;;5021276;28;20717;-80
2022/09/19 03:23:44;;;;;;;2.27;1.07;;;6.70;99.90;;;;;;5035161;28;20380;-81
2022/09/19 03:26:15;;;;;;;3.50;1.00;;;6.70;99.90;;;;;;5019729;28;20302;-81
2022/09/19 03:28:42;;;;;;;2.67;1.13;;;6.70;99.90;;;;;;5026177;28;20316;-81
2022/09/19 03:31:10;;;;;;;1.43;0.93;;;6.70;99.90;;;;;;5020484;28;20235;-80
2022/09/19 03:33:40;;;;;;;2.10;0.90;;;6.60;99.90;;;;;;5023221;28;20288;-80
2022/09/19 03:36:11;;;;;;;3.20;0.87;;;6.60;99.90;;;;;;5017860;28;20526;-81
2022/09/19 03:38:42;;;;;;;2.03;1.00;;;6.60;99.90;;;;;;5030363;28;20230;-79
2022/09/19 03:41:09;;;;;;;3.50;1.07;;;6.60;99.90;;;;;;5025206;28;20221;-80
2022/09/19 03:43:36;;;;;;;4.43;0.90;;;6.50;99.90;;;;;;5021231;28;20297;-78
2022/09/19 03:46:04;;;;;;;2.20;0.80;;;6.50;99.90;;;;;;5015383;28;20354;-81
2022/09/19 03:48:32;;;;;;;0.83;0.70;;;6.50;99.90;;;;;;5007145;28;20231;-81
2022/09/19 03:51:01;;;;;;;1.43;1.10;;;6.50;99.90;;;;;;5016827;28;20272;-81
2022/09/19 03:53:28;;;;;;;2.40;1.00;;;6.50;99.90;;;;;;4999776;28;20762;-81
2022/09/19 03:55:56;;;;;;;3.10;0.90;;;6.40;99.90;;;;;;5017900;28;20281;-81
2022/09/19 03:58:23;;;;;;;2.13;1.10;;;6.40;99.90;;;;;;5001999;28;20231;-80
2022/09/19 04:00:50;;;;;;;2.93;0.90;;;6.30;99.90;;;;;;4996162;28;20230;-78
2022/09/19 04:03:18;;;;;;;1.40;0.80;;;6.30;99.90;;;;;;4997674;28;20322;-82
2022/09/19 04:05:45;;;;;;;3.17;1.03;;;6.30;99.90;;;;;;5003233;28;21205;-82
2022/09/19 04:08:14;;;;;;;1.53;1.00;;;6.20;99.90;;;;;;5021499;28;20289;-80
2022/09/19 04:10:42;;;;;;;2.10;1.07;;;6.20;99.90;;;;;;5010255;28;20673;-80
2022/09/19 04:13:12;;;;;;;3.20;1.40;;;6.20;99.90;;;;;;5002462;28;20228;-79
2022/09/19 04:15:40;;;;;;;0.80;0.70;;;6.30;99.90;;;;;;5009323;28;20231;-80
2022/09/19 04:18:08;;;;;;;1.47;0.90;;;6.20;99.90;;;;;;5025800;28;20240;-82
2022/09/19 04:20:38;;;;;;;3.13;1.00;;;6.20;99.90;;;;;;5008794;28;20236;-79
2022/09/19 04:23:21;;;;;;;1.73;1.00;;;6.20;99.90;;;;;;5002784;28;20542;-80
2022/09/19 04:25:57;;;;;;;2.90;0.80;;;6.20;99.90;;;;;;5000125;28;20304;-79
2022/09/19 04:28:33;;;;;;;2.60;1.10;;;6.20;99.90;;;;;;5004979;28;20334;-79
2022/09/19 04:31:00;;;;;;;1.60;0.80;;;6.30;99.90;;;;;;5001337;28;20291;-80
2022/09/19 04:33:27;;;;;;;2.23;0.93;;;6.30;99.90;;;;;;5001776;28;20793;-81
2022/09/19 04:36:00;;;;;;;2.00;0.97;;;6.40;99.90;;;;;;5001565;28;20241;-81
2022/09/19 04:38:30;;;;;;;2.00;0.90;;;6.50;99.90;;;;;;5008862;28;20229;-81
2022/09/19 04:40:57;;;;;;;1.73;0.87;;;6.50;99.90;;;;;;5006906;28;20227;-81
2022/09/19 04:43:27;;;;;;;2.80;0.90;;;6.60;99.90;;;;;;5003844;28;21071;-77
2022/09/19 04:46:06;;;;;;;1.90;1.03;;;6.70;99.90;;;;;;5026299;28;20240;-78
2022/09/19 04:48:45;;;;;;;2.13;1.20;;;6.80;99.90;;;;;;5019421;28;20645;-78
2022/09/19 04:51:14;;;;;;;3.97;1.30;;;6.80;99.90;;;;;;5009090;28;20244;-79
2022/09/19 04:53:45;;;;;;;4.27;1.10;;;6.90;99.90;;;;;;5006435;28;20890;-78
2022/09/19 04:56:12;;;;;;;2.53;1.43;;;7.00;99.90;;;;;;5007432;28;20231;-79
2022/09/19 04:58:41;;;;;;;1.30;1.00;;;7.00;99.90;;;;;;5007888;28;20246;-80
2022/09/19 05:01:11;;;;;;;2.43;1.00;;;7.10;99.90;;;;;;5006846;28;20244;-78
2022/09/19 05:03:38;;;;;;;4.13;1.27;;;7.10;99.90;;;;;;5003482;28;20231;-76
2022/09/19 05:06:05;;;;;;;2.83;1.13;;;7.20;99.90;;;;;;5021048;28;20233;-81
2022/09/19 05:08:33;;;;;;;5.83;1.20;;;7.20;99.90;;;;;;5023904;28;20251;-76
2022/09/19 05:11:09;;;;;;;1.63;1.10;;;7.30;99.90;;;;;;5003993;28;20220;-78
2022/09/19 05:13:38;;;;;;;3.33;1.27;;;7.30;99.90;;;;;;5000451;28;20230;-78
2022/09/19 05:16:08;;;;;;;3.07;0.90;;;7.40;99.90;;;;;;5001778;28;20315;-78
2022/09/19 05:18:39;;;;;;;2.80;1.30;;;7.40;99.90;;;;;;5007384;28;20246;-78
2022/09/19 05:21:11;;;;;;;5.70;1.50;;;7.50;99.90;;;;;;5003387;28;20226;-78
2022/09/19 05:23:40;;;;;;;3.53;1.57;;;7.50;99.90;;;;;;5004681;28;20236;-77
2022/09/19 05:26:11;;;;;;;2.97;2.10;;;7.50;99.90;;;;;;5002494;28;20217;-78
2022/09/19 05:28:38;;;;;;;4.27;1.63;;;7.60;99.90;;;;;;5005727;28;20574;-79
2022/09/19 05:31:07;;;;;;;3.40;1.83;;;7.70;99.90;;;;;;5022094;28;20697;-79
2022/09/19 05:33:36;;;;;;;4.27;1.97;;;7.70;99.90;;;;;;5006445;28;20236;-78
2022/09/19 05:36:07;;;;;;;3.70;2.00;;;7.70;99.90;;;;;;5005054;28;20229;-77
2022/09/19 05:38:53;;;;;;;4.23;2.20;;;7.80;99.90;;;;;;5017717;28;20222;-78
2022/09/19 05:41:41;;;;;;;4.90;2.10;;;7.90;99.90;;;;;;5026513;28;20230;-78
2022/09/19 05:44:18;;;;;;;9.37;2.60;;;7.90;99.90;;;;;;5024089;28;20218;-78
2022/09/19 05:46:51;;;;;;;7.30;2.67;;;8.00;99.90;;;;;;5024272;28;20240;-79
2022/09/19 05:49:18;;;;;;;7.17;2.47;;;8.00;99.90;;;;;;5024419;28;20253;-78
2022/09/19 05:51:45;;;;;;;5.93;2.20;;;8.00;99.90;;;;;;5023724;28;20236;-79
2022/09/19 05:54:15;;;;;;;7.27;2.80;;;8.10;99.90;;;;;;5038534;28;20310;-81
2022/09/19 05:57:06;;;;;;;9.97;2.70;;;8.10;99.90;;;;;;5039614;28;20227;-82
2022/09/19 05:59:33;;;;;;;6.30;2.23;;;8.20;99.90;;;;;;5037924;28;20296;-82
2022/09/19 06:02:01;;;;;;;4.37;1.93;;;8.30;99.90;;;;;;5045286;28;20226;-82
2022/09/19 06:04:44;;;;;;;6.13;2.30;;;8.30;99.90;;;;;;5019514;28;20288;-82
2022/09/19 06:07:13;;;;;;;6.80;2.30;;;8.40;99.90;;;;;;5023762;28;20589;-82
2022/09/19 06:09:42;;;;;;;5.70;2.20;;;8.40;99.90;;;;;;5025954;28;20308;-82
2022/09/19 06:12:10;;;;;;;5.00;2.30;;;8.50;99.90;;;;;;5021859;28;20866;-82
2022/09/19 06:14:38;;;;;;;6.27;2.17;;;8.60;99.90;;;;;;5023944;28;20609;-82
2022/09/19 06:17:06;;;;;;;7.83;2.60;;;8.60;99.90;;;;;;5014429;28;20684;-82
2022/09/19 06:19:55;;;;;;;7.13;2.20;;;8.70;99.90;;;;;;5018077;28;20239;-82
2022/09/19 06:22:36;;;;;;;4.80;2.30;;;8.80;99.90;;;;;;5009668;28;20246;-82
2022/09/19 06:25:03;;;;;;;5.80;1.97;;;8.80;99.90;;;;;;5021538;28;20238;-82
2022/09/19 06:27:33;;;;;;;7.27;2.00;;;8.90;99.90;;;;;;5010446;28;20239;-82
2022/09/19 06:30:01;;;;;;;7.70;2.53;;;8.90;99.90;;;;;;5020355;28;20308;-84
2022/09/19 06:32:32;;;;;;;9.67;2.60;;;8.90;99.90;;;;;;5006478;28;20322;-82
2022/09/19 06:35:09;;;;;;;6.93;1.90;;;9.00;99.90;;;;;;5007660;28;20301;-81
2022/09/19 06:37:36;;;;;;;7.43;2.93;;;9.00;99.90;;;;;;5018207;28;20220;-82
2022/09/19 06:40:06;;;;;;;4.90;2.03;;;9.00;99.90;;;;;;5007059;28;20227;-81
2022/09/19 06:42:46;;;;;;;7.67;2.13;;;9.00;99.90;;;;;;5020524;28;20715;-82
2022/09/19 06:45:24;;;;;;;9.23;2.40;;;9.10;99.90;;;;;;5019376;28;20230;-81
2022/09/19 06:48:00;;;;;;;5.73;2.10;;;9.10;99.90;;;;;;5021316;28;20217;-81
2022/09/19 06:50:38;;;;;;;8.73;2.50;;;9.20;99.90;;;;;;5025028;28;20233;-82
2022/09/19 06:53:10;;;;;;;6.30;1.67;;;9.30;99.90;;;;;;5018334;28;20228;-82
2022/09/19 06:55:37;;;;;;;8.50;2.00;;;9.30;99.90;;;;;;5027505;28;20235;-82
2022/09/19 06:58:13;;;;;;;6.43;1.90;;;9.30;99.90;;;;;;5029834;28;20231;-82
2022/09/19 07:00:43;;;;;;;9.43;2.50;;;9.40;99.90;;;;;;5028998;28;20935;-81
2022/09/19 07:03:14;;;;;;;7.53;2.33;;;9.40;99.90;;;;;;5015968;28;20494;-83
2022/09/19 07:05:47;;;;;;;8.60;2.37;;;9.50;99.90;;;;;;5039243;28;20594;-82
2022/09/19 07:08:22;;;;;;;13.47;2.53;;;9.50;99.90;;;;;;5021135;28;20228;-80
2022/09/19 07:10:53;;;;;;;9.13;2.30;;;9.50;99.90;;;;;;5016720;28;20836;-81
2022/09/19 07:13:23;;;;;;;10.60;2.93;;;9.50;99.90;;;;;;5019230;28;20226;-80
2022/09/19 07:16:01;;;;;;;13.70;3.10;;;9.60;99.90;;;;;;5020472;28;21218;-81
2022/09/19 07:18:28;;;;;;;9.10;2.73;;;9.70;99.90;;;;;;5025475;28;20226;-81
2022/09/19 07:20:59;;;;;;;11.03;2.40;;;9.70;99.90;;;;;;5023430;28;20317;-81
2022/09/19 07:23:32;;;;;;;10.57;2.03;;;9.80;99.90;;;;;;5022462;28;20655;-80
2022/09/19 07:26:18;;;;;;;8.70;2.80;;;9.80;99.90;;;;;;5041042;28;20216;-81
2022/09/19 07:28:46;;;;;;;10.70;2.60;;;9.90;99.90;;;;;;5038638;28;20222;-80
2022/09/19 07:31:12;;;;;;;12.90;2.73;;;10.00;99.90;;;;;;5037766;28;21220;-81
2022/09/19 07:33:41;;;;;;;10.17;3.07;;;10.10;99.90;;;;;;5017929;28;20671;-80
2022/09/19 07:36:09;;;;;;;12.17;2.33;;;10.20;99.90;;;;;;5017749;28;20675;-80
2022/09/19 07:38:35;;;;;;;9.37;3.17;;;10.30;99.90;;;;;;5021042;28;20268;-80
2022/09/19 07:41:10;;;;;;;12.50;3.03;;;10.40;99.90;;;;;;5025125;28;20219;-79
2022/09/19 07:43:42;;;;;;;10.60;2.80;;;10.60;99.90;;;;;;5026939;28;20229;-79
2022/09/19 07:46:19;;;;;;;10.27;2.60;;;10.70;99.90;;;;;;5020827;28;20231;-80
2022/09/19 07:49:04;;;;;;;12.20;2.33;;;10.90;99.90;;;;;;5035628;28;20233;-79
2022/09/19 07:51:42;;;;;;;14.83;2.77;;;11.00;99.90;;;;;;5024623;28;20389;-80
2022/09/19 07:54:09;;;;;;;12.03;2.77;;;11.20;99.90;;;;;;5018046;28;20233;-79
2022/09/19 07:56:36;;;;;;;12.30;2.83;;;11.30;99.90;;;;;;5018555;28;20962;-80
2022/09/19 07:59:04;;;;;;;15.43;2.60;;;11.30;99.90;;;;;;5014222;28;20216;-81
2022/09/19 08:01:43;;;;;;;13.50;2.50;;;11.40;99.90;;;;;;5013484;28;20219;-81
2022/09/19 08:04:26;;;;;;;16.90;2.70;;;11.60;99.90;;;;;;5013678;28;21029;-81
2022/09/19 08:06:56;;;;;;;13.93;2.77;;;11.60;99.90;;;;;;5012769;28;20248;-80
2022/09/19 08:09:23;;;;;;;9.50;2.77;;;11.70;99.90;;;;;;5016264;28;20273;-80
2022/09/19 08:11:57;;;;;;;11.53;2.30;;;11.80;99.90;;;;;;5036498;28;20220;-80
2022/09/19 08:14:26;;;;;;;13.07;2.60;;;11.80;99.90;;;;;;5024841;28;20959;-80
2022/09/19 08:16:56;;;;;;;13.70;2.80;;;12.00;99.90;;;;;;5014008;28;21012;-81
2022/09/19 08:19:25;;;;;;;9.63;2.00;;;12.20;99.90;;;;;;5032195;28;20308;-81
2022/09/19 08:21:52;;;;;;;13.13;2.20;;;12.60;99.90;;;;;;5031358;28;20223;-80
2022/09/19 08:24:19;;;;;;;10.10;2.20;;;13.20;99.90;;;;;;5005983;28;20227;-80
2022/09/19 08:26:46;;;;;;;11.77;2.10;;;13.80;99.90;;;;;;5019829;28;20287;-80
2022/09/19 08:29:14;;;;;;;8.50;2.43;;;14.50;99.90;;;;;;5017020;28;20236;-78
2022/09/19 08:31:54;;;;;;;8.43;2.23;;;15.20;99.90;;;;;;5036714;28;20232;-80
2022/09/19 08:34:25;;;;;;;7.33;1.90;;;15.90;99.90;;;;;;5020573;28;20241;-81
2022/09/19 08:36:58;;;;;;;9.20;1.77;;;16.50;99.90;;;;;;5024868;28;20326;-80
2022/09/19 08:39:29;;;;;;;7.67;2.00;;;17.10;99.90;;;;;;5020608;28;20239;-80
2022/09/19 08:42:15;;;;;;;4.40;1.60;;;17.70;99.90;;;;;;5021349;28;20231;-81
2022/09/19 08:44:58;;;;;;;9.70;2.40;;;18.30;99.90;;;;;;5020592;28;20648;-80
2022/09/19 08:47:28;;;;;;;6.47;1.90;;;18.80;99.90;;;;;;5001130;28;20227;-80
2022/09/19 08:50:00;;;;;;;8.80;2.03;;;19.30;99.90;;;;;;5017134;28;20219;-80
2022/09/19 08:52:37;;;;;;;8.13;2.10;;;19.60;99.90;;;;;;5022961;28;20351;-80
2022/09/19 08:55:12;;;;;;;5.67;1.50;;;19.90;99.90;;;;;;5025438;28;20214;-81
2022/09/19 08:57:51;;;;;;;9.00;2.13;;;20.10;99.90;;;;;;5020198;28;20251;-79
2022/09/19 09:00:20;;;;;;;6.03;1.67;;;20.30;99.90;;;;;;5026263;28;20215;-80
2022/09/19 09:02:56;;;;;;;7.13;1.97;;;20.40;99.90;;;;;;5028182;28;20265;-81
2022/09/19 09:05:40;;;;;;;8.07;2.10;;;20.50;99.90;;;;;;5037596;28;20231;-80
2022/09/19 09:08:20;;;;;;;9.70;2.10;;;20.70;99.90;;;;;;5035782;28;20224;-80
2022/09/19 09:11:20;;;;;;;8.67;1.60;;;20.70;99.90;;;;;;5039219;28;21060;-81
2022/09/19 09:13:57;;;;;;;7.90;1.80;;;20.70;99.90;;;;;;5026294;28;20233;-81
2022/09/19 09:16:35;;;;;;;6.07;1.70;;;20.50;99.60;;;;;;5022475;28;20236;-80
2022/09/19 09:19:20;;;;;;;5.67;1.40;;;20.30;99.60;;;;;;5020010;28;20222;-80
2022/09/19 09:22:01;;;;;;;7.97;1.80;;;20.20;99.90;;;;;;5041529;28;20233;-81
2022/09/19 09:24:41;;;;;;;6.13;1.60;;;20.10;99.90;;;;;;5025224;28;20296;-80
2022/09/19 09:27:33;;;;;;;6.10;1.50;;;20.10;99.90;;;;;;5028977;28;20231;-81
2022/09/19 09:30:16;;;;;;;5.20;1.40;;;20.20;99.90;;;;;;5028131;28;20281;-81
2022/09/19 09:32:56;;;;;;;5.27;1.33;;;20.20;99.90;;;;;;5028414;28;20341;-81
2022/09/19 09:35:31;;;;;;;5.60;1.77;;;20.20;99.10;;;;;;5032526;28;20321;-81
2022/09/19 09:38:08;;;;;;;5.07;1.30;;;20.20;98.80;;;;;;5031887;28;20221;-80
2022/09/19 09:43:41;;;;;;;5.40;1.40;;;20.00;98.00;;;;;;5028404;28;20428;-79
2022/09/19 09:46:13;;;;;;;4.67;1.17;;;19.80;97.10;;;;;;5034823;28;20218;-80
2022/09/19 09:48:40;;;;;;;5.97;1.47;;;19.60;97.50;;;;;;5035079;28;20231;-78
2022/09/19 09:51:33;;;;;;;6.30;1.33;;;19.50;98.10;;;;;;5043874;28;20733;-81
2022/09/19 09:57:02;;;;;;;5.27;1.70;;;19.30;98.40;;;;;;5036973;28;20217;-81
2022/09/19 10:05:16;;;;;;;5.13;1.37;;;19.20;98.30;;;;;;5018595;28;20774;-84
2022/09/19 10:07:58;;;;;;;4.93;1.00;;;19.20;98.20;;;;;;5022831;28;20283;-81
2022/09/19 10:10:29;;;;;;;4.00;1.50;;;19.10;97.20;;;;;;5019700;28;20225;-82
2022/09/19 10:13:00;;;;;;;3.93;1.20;;;19.00;97.80;;;;;;5023536;28;20811;-81
2022/09/19 10:15:28;;;;;;;3.60;1.30;;;18.90;97.60;;;;;;5038390;28;20304;-81
2022/09/19 10:18:21;;;;;;;5.77;1.10;;;18.80;98.10;;;;;;5020730;28;20231;-82
2022/09/19 10:21:00;;;;;;;5.30;1.30;;;18.90;98.40;;;;;;5035826;28;20720;-82
2022/09/19 10:23:33;;;;;;;7.83;1.07;;;18.90;98.50;;;;;;5023320;28;20320;-81
2022/09/19 10:26:15;;;;;;;5.13;1.30;;;19.00;98.20;;;;;;5024710;28;20261;-83
2022/09/19 10:28:49;;;;;;;5.53;1.33;;;19.20;98.10;;;;;;5026337;28;21109;-84
2022/09/19 10:31:38;;;;;;;4.40;1.17;;;19.40;97.70;;;;;;5043468;28;20251;-82
2022/09/19 10:34:26;;;;;;;4.40;1.07;;;19.70;97.30;;;;;;5035984;28;20223;-84
2022/09/19 10:36:53;;;;;;;4.37;1.00;;;19.90;97.10;;;;;;5043324;28;20223;-82
2022/09/19 10:39:23;;;;;;;4.60;1.13;;;20.20;97.60;;;;;;5022604;28;20226;-83
2022/09/19 10:41:51;;;;;;;3.33;1.03;;;20.60;96.30;;;;;;5018773;28;20225;-83
2022/09/19 10:44:21;;;;;;;2.17;0.83;;;20.90;96.20;;;;;;5037643;28;20319;-83
2022/09/19 10:46:51;;;;;;;5.28;1.20;;;21.20;96.20;;;;;;5023530;28;20639;-83
2022/09/19 10:49:45;;;;;;;4.10;1.23;;;21.50;95.00;;;;;;5043046;28;20238;-83
2022/09/19 10:52:23;;;;;;;3.13;1.00;;;21.80;94.30;;;;;;5040694;28;20228;-82
2022/09/19 10:54:53;;;;;;;3.47;0.93;;;22.00;94.00;;;;;;5036544;28;20633;-84
2022/09/19 10:57:41;;;;;;;3.55;1.05;;;22.10;94.30;;;;;;5037490;28;20220;-83
2022/09/19 11:00:25;;;;;;;2.60;0.98;;;22.40;93.30;;;;;;5018430;28;20461;-81
2022/09/19 11:03:05;;;;;;;2.65;0.80;;;22.60;92.30;;;;;;5034887;28;20374;-83
2022/09/19 11:05:33;;;;;;;2.33;0.93;;;22.60;92.10;;;;;;5033278;28;20291;-83
2022/09/19 11:08:02;;;;;;;3.85;0.75;;;22.50;91.20;;;;;;5018641;28;20216;-82
2022/09/19 11:10:39;;;;;;;3.25;1.20;;;22.40;91.20;;;;;;5022395;28;20341;-83
2022/09/19 11:13:14;;;;;;;2.15;0.90;;;22.30;90.90;;;;;;5018242;28;20224;-83
2022/09/19 11:16:00;;;;;;;2.90;0.60;;;22.10;91.00;;;;;;5002909;28;20259;-83
2022/09/19 11:18:37;;;;;;;4.15;0.80;;;21.90;90.00;;;;;;5018255;28;20250;-82
2022/09/19 11:21:12;;;;;;;2.47;0.90;;;21.70;90.30;;;;;;5019149;28;20576;-81
2022/09/19 11:24:02;;;;;;;3.05;1.35;;;21.40;90.50;;;;;;5019818;28;20814;-83
2022/09/19 11:26:39;;;;;;;6.80;1.23;;;21.20;91.80;;;;;;5002491;28;20228;-84
2022/09/19 11:29:26;;;;;;;2.75;1.00;;;21.10;92.00;;;;;;5019352;28;21099;-82
2022/09/19 11:32:06;;;;;;;2.22;1.10;;;21.30;92.40;;;;;;5002998;28;20243;-82
2022/09/19 11:34:47;;;;;;;1.98;0.75;;;21.50;92.70;;;;;;5023598;28;20684;-82
2022/09/19 11:37:29;;;;;;;3.40;1.15;;;22.00;91.40;;;;;;5022249;28;20671;-82
2022/09/19 11:40:05;;;;;;;2.08;0.80;;;22.40;91.00;;;;;;5026054;28;20304;-82
2022/09/19 11:42:47;;;;;;;2.28;0.93;;;22.70;90.20;;;;;;5025546;28;20283;-83
2022/09/19 11:45:21;;;;;;;2.30;0.63;;;22.80;89.50;;;;;;5024561;28;20241;-82
2022/09/19 11:48:20;;;;;;;2.15;0.70;;;22.70;87.80;;;;;;5018249;28;20231;-83
2022/09/19 11:51:00;;;;;;;2.95;0.90;;;22.40;87.20;;;;;;5021935;28;20274;-82
2022/09/19 11:53:43;;;;;;;2.33;0.88;;;22.00;88.00;;;;;;5022981;28;20234;-82
2022/09/19 11:56:36;;;;;;;2.10;0.65;;;21.70;87.00;;;;;;5012562;28;20217;-82
2022/09/19 11:59:18;;;;;;;1.73;0.55;;;21.50;86.90;;;;;;5014068;28;20225;-83
2022/09/19 12:01:58;;;;;;;1.73;0.55;;;21.40;85.80;;;;;;5017311;28;20228;-81
2022/09/19 12:04:39;;;;;;;2.95;0.70;;;21.30;85.80;;;;;;5002381;28;20319;-82
2022/09/19 12:07:25;;;;;;;2.25;0.50;;;21.30;86.40;;;;;;4999547;28;20271;-83
2022/09/19 12:10:00;;;;;;;1.95;0.63;;;21.20;84.20;;;;;;5001557;28;20312;-83
2022/09/19 12:12:31;;;;;;;1.48;0.50;;;21.00;84.70;;;;;;5020947;28;20224;-82
2022/09/19 12:15:22;;;;;;;0.57;0.40;;;20.80;85.40;;;;;;5016792;28;20256;-82
2022/09/19 12:17:57;;;;;;;1.70;0.60;;;20.50;85.50;;;;;;5000197;28;20251;-82
2022/09/19 12:20:34;;;;;;;2.50;0.60;;;20.20;85.40;;;;;;5005433;28;20228;-82
2022/09/19 12:25:54;;;;;;;1.67;0.70;;;19.60;86.40;;;;;;5017218;28;20705;-82
2022/09/19 12:28:24;;;;;;;2.27;0.70;;;19.30;86.30;;;;;;5005540;28;20225;-81
2022/09/19 12:30:55;;;;;;;3.13;0.63;;;19.00;89.30;;;;;;5003753;28;20310;-82
2022/09/19 12:33:32;;;;;;;3.37;0.90;;;18.70;91.00;;;;;;4996828;28;20608;-84
2022/09/19 12:36:04;;;;;;;1.20;0.50;;;18.30;91.90;;;;;;5020759;28;20231;-82
2022/09/19 12:38:37;;;;;;;4.23;0.63;;;17.80;92.70;;;;;;4998502;28;20248;-82
2022/09/19 12:41:15;;;;;;;4.43;0.60;;;17.20;93.70;;;;;;5015522;28;20224;-82
2022/09/19 12:43:46;;;;;;;1.57;0.60;;;16.70;94.20;;;;;;5016757;28;20241;-81
2022/09/19 12:46:31;;;;;;;3.17;0.80;;;16.20;95.10;;;;;;4999531;28;20701;-82
2022/09/19 12:49:05;;;;;;;1.93;0.70;;;15.70;96.60;;;;;;5005914;28;20311;-81
2022/09/19 12:51:54;;;;;;;1.80;0.60;;;15.40;97.30;;;;;;5006013;28;20255;-84
2022/09/19 12:54:26;;;;;;;2.47;0.70;;;15.00;98.50;;;;;;5022705;28;20272;-79
2022/09/19 12:57:00;;;;;;;1.40;0.50;;;14.80;98.90;;;;;;5023177;28;20774;-81
2022/09/19 12:59:33;;;;;;;2.70;0.77;;;14.60;99.90;;;;;;5020216;28;20318;-82
2022/09/19 13:02:02;;;;;;;2.00;0.50;;;14.40;99.90;;;;;;5020889;28;20248;-82
2022/09/19 13:04:38;;;;;;;1.63;0.63;;;14.20;99.90;;;;;;5009037;28;20741;-80
2022/09/19 13:07:10;;;;;;;2.40;0.80;;;14.10;99.90;;;;;;5024432;28;20434;-81
2022/09/19 13:09:49;;;;;;;3.90;1.13;;;14.00;99.90;;;;;;5023963;28;20233;-80
2022/09/19 13:12:25;;;;;;;2.00;0.97;;;14.00;99.90;;;;;;5022844;28;20357;-81
2022/09/19 13:14:55;;;;;;;2.13;0.63;;;14.00;99.90;;;;;;5023828;28;20323;-80
2022/09/19 13:25:49;;;;;;;2.07;1.03;;;14.00;99.90;;;;;;5021247;28;20212;-80
2022/09/19 13:28:34;;;;;;;2.90;1.23;;;14.00;99.90;;;;;;5005510;28;20216;-81
2022/09/19 13:31:17;;;;;;;3.40;1.33;;;13.90;99.90;;;;;;5025989;28;20276;-80
2022/09/19 13:33:52;;;;;;;2.90;1.00;;;14.00;99.90;;;;;;5047117;28;20688;-81
2022/09/19 13:36:40;;;;;;;4.17;1.00;;;14.00;99.90;;;;;;5041452;28;20220;-82
2022/09/19 13:39:55;;;;;;;5.13;1.00;;;14.00;99.90;;;;;;5024142;28;20293;-81
2022/09/19 13:42:28;;;;;;;3.17;0.90;;;14.00;99.90;;;;;;5038219;28;20835;-81
2022/09/19 13:45:05;;;;;;;3.17;0.80;;;14.00;99.90;;;;;;5048473;28;20656;-82
2022/09/19 13:47:37;;;;;;;3.97;0.93;;;14.00;99.90;;;;;;5021921;28;20231;-82
2022/09/19 13:50:14;;;;;;;2.23;0.93;;;14.00;99.90;;;;;;5050510;28;20227;-82
2022/09/19 13:52:58;;;;;;;3.40;1.10;;;14.00;99.90;;;;;;5050941;28;20578;-82
2022/09/19 13:55:32;;;;;;;3.17;0.80;;;14.00;99.90;;;;;;5040535;28;20239;-82